createdAt,value
2023-11-12T00:01:52.981Z,2.38
2023-11-12T00:04:19.827Z,2.42
2023-11-12T00:06:45.783Z,1.98
2023-11-12T00:09:11.974Z,3.25
2023-11-12T00:11:41.361Z,2.15
2023-11-12T00:14:07.296Z,2.88
2023-11-12T00:16:33.504Z,1.88
2023-11-12T00:18:59.424Z,2.55
2023-11-12T00:21:25.279Z,1.80
2023-11-12T00:23:54.443Z,2.35
2023-11-12T00:26:21.633Z,2.60
2023-11-12T00:28:47.519Z,2.00
2023-11-12T00:31:13.421Z,2.30
2023-11-12T00:33:41.817Z,3.20
2023-11-12T00:36:08.870Z,4.28
2023-11-12T00:38:35.688Z,2.63
2023-11-12T00:41:01.561Z,4.35
2023-11-12T00:43:27.765Z,4.57
2023-11-12T00:45:58.622Z,1.95
2023-11-12T00:48:24.493Z,2.85
2023-11-12T00:50:50.311Z,3.13
2023-11-12T00:53:16.206Z,2.85
2023-11-12T00:55:42.151Z,3.22
2023-11-12T00:58:08.070Z,3.35
2023-11-12T01:00:34.131Z,2.88
2023-11-12T01:03:00.056Z,2.88
2023-11-12T01:05:25.999Z,3.40
2023-11-12T01:07:51.835Z,2.83
2023-11-12T01:10:17.702Z,2.58
2023-11-12T01:12:43.555Z,2.20
2023-11-12T01:15:09.501Z,3.97
2023-11-12T01:17:35.638Z,3.92
2023-11-12T01:20:01.779Z,2.63
2023-11-12T01:22:28.002Z,2.88
2023-11-12T01:24:53.889Z,2.35
2023-11-12T01:27:19.718Z,2.08
2023-11-12T01:29:45.562Z,2.90
2023-11-12T01:32:11.354Z,2.47
2023-11-12T01:34:37.181Z,2.53
2023-11-12T01:37:03.015Z,2.53
2023-11-12T01:39:28.926Z,1.92
2023-11-12T01:41:54.745Z,2.70
2023-11-12T01:44:20.779Z,2.47
2023-11-12T01:46:46.776Z,2.20
2023-11-12T01:49:13.339Z,3.25
2023-11-12T01:51:39.273Z,2.10
2023-11-12T01:54:05.353Z,2.30
2023-11-12T01:56:31.536Z,2.40
2023-11-12T01:58:58.245Z,2.63
2023-11-12T02:01:24.136Z,2.28
2023-11-12T02:03:52.549Z,3.28
2023-11-12T02:06:18.793Z,3.70
2023-11-12T02:08:45.481Z,2.10
2023-11-12T02:11:14.223Z,2.83
2023-11-12T02:13:43.808Z,2.92
2023-11-12T02:16:10.665Z,1.70
2023-11-12T02:18:36.583Z,2.53
2023-11-12T02:21:03.567Z,3.28
2023-11-12T02:23:30.178Z,2.70
2023-11-12T02:25:57.928Z,3.47
2023-11-12T02:28:23.888Z,2.70
2023-11-12T02:30:55.871Z,1.90
2023-11-12T02:33:27.793Z,2.30
2023-11-12T02:35:55.972Z,3.95
2023-11-12T02:38:23.579Z,2.45
2023-11-12T02:40:50.019Z,3.05
2023-11-12T02:43:16.764Z,1.85
2023-11-12T02:45:42.740Z,2.63
2023-11-12T02:48:08.772Z,2.58
2023-11-12T02:50:36.017Z,2.15
2023-11-12T02:53:07.641Z,2.75
2023-11-12T02:55:34.297Z,3.75
2023-11-12T02:58:00.395Z,1.85
2023-11-12T03:00:27.947Z,4.03
2023-11-12T03:02:55.414Z,2.58
2023-11-12T03:05:21.376Z,2.15
2023-11-12T03:07:47.233Z,3.15
2023-11-12T03:10:13.889Z,3.47
2023-11-12T03:12:39.774Z,2.53
2023-11-12T03:15:07.308Z,2.88
2023-11-12T03:17:34.631Z,3.75
2023-11-12T03:20:04.554Z,2.72
2023-11-12T03:22:34.855Z,4.50
2023-11-12T03:25:01.586Z,3.53
2023-11-12T03:27:28.155Z,2.92
2023-11-12T03:29:53.954Z,3.15
2023-11-12T03:32:21.878Z,1.75
2023-11-12T03:34:51.291Z,2.72
2023-11-12T03:37:21.160Z,2.75
2023-11-12T03:39:48.270Z,3.88
2023-11-12T03:42:16.317Z,5.50
2023-11-12T03:44:47.238Z,3.53
2023-11-12T03:47:13.361Z,3.95
2023-11-12T03:49:42.565Z,3.17
2023-11-12T03:52:08.957Z,3.88
2023-11-12T03:54:36.324Z,3.47
2023-11-12T03:57:02.152Z,2.97
2023-11-12T03:59:27.955Z,3.75
2023-11-12T04:01:53.767Z,3.53
2023-11-12T04:04:19.865Z,2.35
2023-11-12T04:06:45.874Z,3.10
2023-11-12T04:09:12.345Z,4.15
2023-11-12T04:11:40.789Z,2.05
2023-11-12T04:14:07.697Z,2.47
2023-11-12T04:16:35.160Z,3.15
2023-11-12T04:19:03.370Z,4.78
2023-11-12T04:21:32.224Z,4.28
2023-11-12T04:23:58.585Z,3.88
2023-11-12T04:26:25.199Z,5.50
2023-11-12T04:28:51.284Z,3.60
2023-11-12T04:31:17.397Z,3.33
2023-11-12T04:33:43.262Z,4.63
2023-11-12T04:36:09.197Z,6.35
2023-11-12T04:38:35.033Z,7.95
2023-11-12T04:41:00.894Z,4.95
2023-11-12T04:43:26.740Z,6.47
2023-11-12T04:45:52.608Z,5.72
2023-11-12T04:48:18.603Z,4.45
2023-11-12T04:50:45.926Z,3.70
2023-11-12T04:53:12.338Z,2.95
2023-11-12T04:55:38.834Z,1.80
2023-11-12T04:58:07.840Z,2.13
2023-11-12T05:00:34.104Z,3.15
2023-11-12T05:03:03.961Z,5.65
2023-11-12T05:05:30.523Z,1.88
2023-11-12T05:07:56.351Z,3.13
2023-11-12T05:10:22.237Z,2.55
2023-11-12T05:13:08.637Z,2.60
2023-11-12T05:15:35.448Z,3.85
2023-11-12T05:18:06.265Z,3.25
2023-11-12T05:20:33.958Z,2.63
2023-11-12T05:23:01.778Z,2.40
2023-11-12T05:25:28.439Z,2.20
2023-11-12T05:27:55.184Z,2.75
2023-11-12T05:30:21.288Z,3.95
2023-11-12T05:32:51.319Z,2.90
2023-11-12T05:35:17.699Z,3.47
2023-11-12T05:37:43.540Z,3.65
2023-11-12T05:40:09.933Z,3.92
2023-11-12T05:42:35.823Z,2.72
2023-11-12T05:45:02.222Z,5.88
2023-11-12T05:47:28.227Z,4.30
2023-11-12T05:49:54.087Z,2.03
2023-11-12T05:52:19.879Z,3.00
2023-11-12T05:54:45.742Z,7.55
2023-11-12T05:57:11.562Z,3.00
2023-11-12T05:59:37.364Z,2.75
2023-11-12T06:02:03.389Z,2.10
2023-11-12T06:04:29.320Z,4.25
2023-11-12T06:06:55.160Z,3.90
2023-11-12T06:09:20.981Z,3.08
2023-11-12T06:11:48.215Z,3.30
2023-11-12T06:14:14.321Z,3.95
2023-11-12T06:16:40.210Z,3.97
2023-11-12T06:19:06.103Z,3.20
2023-11-12T06:21:32.108Z,4.78
2023-11-12T06:23:57.987Z,5.00
2023-11-12T06:26:23.780Z,4.57
2023-11-12T06:28:49.835Z,6.53
2023-11-12T06:31:18.898Z,4.38
2023-11-12T06:36:14.544Z,3.83
2023-11-12T06:38:41.788Z,3.55
2023-11-12T06:41:09.107Z,6.45
2023-11-12T06:43:34.908Z,3.65
2023-11-12T06:46:00.692Z,3.88
2023-11-12T06:48:26.558Z,3.20
2023-11-12T06:50:52.409Z,3.90
2023-11-12T06:53:18.261Z,3.38
2023-11-12T06:55:44.117Z,3.60
2023-11-12T06:58:10.389Z,5.22
2023-11-12T07:00:36.394Z,3.88
2023-11-12T07:03:02.500Z,2.90
2023-11-12T07:05:30.844Z,3.65
2023-11-12T07:07:57.725Z,5.32
2023-11-12T07:10:23.739Z,2.95
2023-11-12T07:12:50.073Z,4.30
2023-11-12T07:15:16.013Z,3.88
2023-11-12T07:17:43.857Z,4.05
2023-11-12T07:20:11.730Z,3.28
2023-11-12T07:22:37.578Z,3.97
2023-11-12T07:25:03.993Z,7.43
2023-11-12T07:27:31.648Z,4.68
2023-11-12T07:29:57.757Z,3.83
2023-11-12T07:32:23.772Z,3.83
2023-11-12T07:34:49.880Z,3.83
2023-11-12T07:37:15.839Z,4.93
2023-11-12T07:39:41.852Z,5.25
2023-11-12T07:42:07.821Z,3.45
2023-11-12T07:44:35.706Z,4.15
2023-11-12T07:47:01.606Z,3.40
2023-11-12T07:49:27.500Z,3.35
2023-11-12T07:51:53.316Z,3.30
2023-11-12T07:54:19.130Z,3.28
2023-11-12T07:56:45.069Z,4.35
2023-11-12T07:59:11.304Z,5.32
2023-11-12T08:01:37.154Z,4.80
2023-11-12T08:04:03.150Z,3.67
2023-11-12T08:06:29.045Z,6.28
2023-11-12T08:08:54.964Z,3.22
2023-11-12T08:11:20.987Z,3.40
2023-11-12T08:13:47.427Z,3.85
2023-11-12T08:16:13.757Z,3.83
2023-11-12T08:18:43.731Z,3.38
2023-11-12T08:21:10.384Z,2.33
2023-11-12T08:23:36.792Z,7.03
2023-11-12T08:26:03.381Z,3.10
2023-11-12T08:28:29.901Z,5.10
2023-11-12T08:30:55.789Z,3.60
2023-11-12T08:33:22.323Z,5.32
2023-11-12T08:35:48.151Z,5.00
2023-11-12T08:38:14.090Z,2.72
2023-11-12T08:40:42.284Z,3.67
2023-11-12T08:43:13.539Z,3.00
2023-11-12T08:45:39.929Z,3.50
2023-11-12T08:48:05.911Z,2.80
2023-11-12T08:50:32.826Z,3.25
2023-11-12T08:53:01.364Z,6.22
2023-11-12T08:55:27.450Z,4.82
2023-11-12T08:57:53.446Z,2.90
2023-11-12T09:00:19.769Z,3.28
2023-11-12T09:02:46.602Z,2.67
2023-11-12T09:05:13.409Z,3.88
2023-11-12T09:07:39.285Z,2.47
2023-11-12T09:10:05.835Z,3.20
2023-11-12T09:12:32.759Z,4.22
2023-11-12T09:14:58.637Z,4.18
2023-11-12T09:17:24.511Z,3.38
2023-11-12T09:19:50.393Z,2.88
2023-11-12T09:22:16.296Z,4.22
2023-11-12T09:24:55.237Z,2.83
2023-11-12T09:27:30.494Z,2.95
2023-11-12T09:29:56.288Z,3.20
2023-11-12T09:32:22.152Z,4.15
2023-11-12T09:34:47.972Z,3.67
2023-11-12T09:37:13.797Z,4.25
2023-11-12T09:39:39.838Z,2.70
2023-11-12T09:42:07.648Z,2.80
2023-11-12T09:44:37.969Z,3.42
2023-11-12T09:47:21.351Z,7.82
2023-11-12T09:49:50.451Z,3.05
2023-11-12T09:52:16.501Z,3.33
2023-11-12T09:54:43.675Z,1.88
2023-11-12T09:57:10.056Z,3.92
2023-11-12T09:59:36.918Z,3.03
2023-11-12T10:02:06.014Z,2.92
2023-11-12T10:04:31.923Z,2.97
2023-11-12T10:06:58.346Z,3.20
2023-11-12T10:09:30.567Z,3.08
2023-11-12T10:12:04.068Z,1.90
2023-11-12T10:14:30.059Z,2.85
2023-11-12T10:17:07.084Z,2.78
2023-11-12T10:19:34.805Z,2.72
2023-11-12T10:22:02.328Z,2.83
2023-11-12T10:24:29.438Z,2.95
2023-11-12T10:27:05.536Z,2.28
2023-11-12T10:29:31.907Z,4.53
2023-11-12T10:31:58.101Z,3.80
2023-11-12T10:34:27.410Z,3.55
2023-11-12T10:37:04.049Z,3.25
2023-11-12T10:39:41.084Z,3.25
2023-11-12T10:42:16.022Z,3.47
2023-11-12T10:44:43.146Z,3.25
2023-11-12T10:47:10.872Z,2.97
2023-11-12T10:49:40.046Z,3.13
2023-11-12T10:52:06.904Z,2.63
2023-11-12T10:54:33.492Z,3.42
2023-11-12T10:57:00.384Z,5.45
2023-11-12T10:59:29.068Z,4.50
2023-11-12T11:01:58.674Z,3.83
2023-11-12T11:04:27.053Z,2.60
2023-11-12T11:06:53.210Z,2.38
2023-11-12T11:09:21.345Z,4.30
2023-11-12T11:11:49.679Z,3.58
2023-11-12T11:14:28.287Z,3.58
2023-11-12T11:16:54.913Z,3.00
2023-11-12T11:19:43.749Z,2.55
2023-11-12T11:22:25.434Z,3.28
2023-11-12T11:24:55.375Z,3.13
2023-11-12T11:27:28.714Z,4.15
2023-11-12T11:30:15.864Z,4.07
2023-11-12T11:32:59.757Z,3.50
2023-11-12T11:35:27.038Z,4.68
2023-11-12T11:38:12.984Z,3.22
2023-11-12T11:40:40.686Z,2.42
2023-11-12T11:43:26.194Z,3.33
2023-11-12T11:46:04.313Z,2.75
2023-11-12T11:48:30.324Z,4.07
2023-11-12T11:50:59.518Z,3.25
2023-11-12T11:53:26.677Z,3.13
2023-11-12T11:56:02.164Z,2.92
2023-11-12T11:58:35.972Z,4.38
2023-11-12T12:01:01.877Z,2.85
2023-11-12T12:03:29.732Z,2.63
2023-11-12T12:05:55.900Z,3.05
2023-11-12T12:08:21.751Z,3.90
2023-11-12T12:10:48.704Z,3.95
2023-11-12T12:13:15.624Z,2.72
2023-11-12T12:15:46.099Z,2.78
2023-11-12T12:18:24.100Z,2.22
2023-11-12T12:20:52.473Z,3.42
2023-11-12T12:23:20.723Z,2.15
2023-11-12T12:25:55.652Z,1.90
2023-11-12T12:28:26.790Z,2.63
2023-11-12T12:30:53.104Z,2.08
2023-11-12T12:33:18.985Z,5.53
2023-11-12T12:35:44.818Z,1.80
2023-11-12T12:38:11.227Z,2.45
2023-11-12T12:40:37.664Z,3.08
2023-11-12T12:43:07.010Z,1.42
2023-11-12T12:45:34.990Z,4.45
2023-11-12T12:48:10.948Z,2.25
2023-11-12T12:50:36.930Z,3.22
2023-11-12T12:53:15.416Z,1.77
2023-11-12T12:55:43.753Z,2.08
2023-11-12T12:58:10.659Z,2.58
2023-11-12T13:00:39.138Z,2.25
2023-11-12T13:03:13.975Z,1.42
2023-11-12T13:05:39.841Z,1.83
2023-11-12T13:08:08.561Z,2.35
2023-11-12T13:10:34.548Z,2.20
2023-11-12T13:13:00.544Z,2.75
2023-11-12T13:15:26.920Z,1.73
2023-11-12T13:17:52.898Z,2.00
2023-11-12T13:20:21.780Z,1.90
2023-11-12T13:25:15.986Z,2.33
2023-11-12T13:27:46.258Z,1.67
2023-11-12T13:30:13.124Z,3.03
2023-11-12T13:32:40.441Z,2.72
2023-11-12T13:35:07.635Z,2.33
2023-11-12T13:37:35.154Z,2.47
2023-11-12T13:40:05.729Z,3.13
2023-11-12T13:42:36.351Z,5.10
2023-11-12T13:45:05.719Z,2.67
2023-11-12T13:47:32.107Z,3.05
2023-11-12T13:49:57.925Z,2.42
2023-11-12T13:52:23.742Z,2.30
2023-11-12T13:54:50.539Z,3.60
2023-11-12T13:57:16.535Z,3.45
2023-11-12T13:59:42.477Z,3.50
2023-11-12T14:02:11.404Z,2.53
2023-11-12T14:04:37.420Z,4.07
2023-11-12T14:07:04.859Z,2.20
2023-11-12T14:09:33.448Z,2.90
2023-11-12T14:12:06.003Z,2.55
2023-11-12T14:14:32.383Z,3.10
2023-11-12T14:16:58.386Z,4.13
2023-11-12T14:19:27.757Z,5.53
2023-11-12T14:21:56.672Z,4.88
2023-11-12T14:24:26.585Z,2.80
2023-11-12T14:26:52.492Z,2.95
2023-11-12T14:29:19.497Z,2.50
2023-11-12T14:31:46.597Z,3.92
2023-11-12T14:34:13.248Z,3.35
2023-11-12T14:36:40.819Z,3.95
2023-11-12T14:39:11.002Z,5.88
2023-11-12T14:41:41.139Z,4.05
2023-11-12T14:44:07.771Z,4.07
2023-11-12T14:46:36.424Z,3.53
2023-11-12T14:49:05.788Z,3.42
2023-11-12T14:51:33.830Z,5.55
2023-11-12T14:54:05.584Z,7.60
2023-11-12T14:56:32.652Z,4.70
2023-11-12T14:58:58.578Z,4.97
2023-11-12T15:01:24.500Z,5.13
2023-11-12T15:03:50.350Z,5.38
2023-11-12T15:06:16.220Z,5.50
2023-11-12T15:08:42.045Z,5.53
2023-11-12T15:11:08.921Z,5.25
2023-11-12T15:13:34.730Z,8.55
2023-11-12T15:16:00.608Z,6.88
2023-11-12T15:18:27.699Z,6.35
2023-11-12T15:20:53.545Z,7.32
2023-11-12T15:23:19.327Z,6.05
2023-11-12T15:25:45.134Z,8.27
2023-11-12T15:28:11.448Z,7.18
2023-11-12T15:30:37.315Z,7.68
2023-11-12T15:33:06.819Z,8.15
2023-11-12T15:35:33.153Z,10.93
2023-11-12T15:37:59.018Z,9.23
2023-11-12T15:40:24.864Z,8.68
2023-11-12T15:42:52.384Z,9.65
2023-11-12T15:45:18.877Z,10.23
2023-11-12T15:47:46.622Z,11.70
2023-11-12T15:50:13.963Z,11.18
2023-11-12T15:52:40.745Z,12.30
2023-11-12T15:55:08.888Z,12.40
2023-11-12T15:57:37.346Z,12.82
2023-11-12T16:00:08.270Z,17.98
2023-11-12T16:02:38.617Z,18.55
2023-11-12T16:05:05.202Z,15.60
2023-11-12T16:07:31.343Z,19.77
2023-11-12T16:09:58.170Z,17.35
2023-11-12T16:12:25.373Z,18.92
2023-11-12T16:14:51.622Z,18.35
2023-11-12T16:17:17.471Z,17.77
2023-11-12T16:19:43.261Z,16.40
2023-11-12T16:22:09.323Z,18.45
2023-11-12T16:24:35.174Z,22.17
2023-11-12T16:27:01.056Z,18.02
2023-11-12T16:29:26.910Z,16.77
2023-11-12T16:32:09.462Z,17.25
2023-11-12T16:34:36.317Z,18.30
2023-11-12T16:37:02.704Z,20.85
2023-11-12T16:39:32.026Z,18.52
2023-11-12T16:41:58.029Z,20.50
2023-11-12T16:44:24.892Z,19.02
2023-11-12T16:46:51.972Z,18.02
2023-11-12T16:49:17.826Z,17.23
2023-11-12T16:51:43.723Z,22.50
2023-11-12T16:54:09.564Z,17.35
2023-11-12T16:56:35.942Z,16.05
2023-11-12T16:59:01.942Z,20.67
2023-11-12T17:01:27.863Z,15.80
2023-11-12T17:03:53.894Z,19.95
2023-11-12T17:06:19.766Z,19.42
2023-11-12T17:08:45.539Z,18.75
2023-11-12T17:11:11.459Z,21.15
2023-11-12T17:13:37.307Z,21.90
2023-11-12T17:16:03.423Z,18.42
2023-11-12T17:18:29.398Z,22.52
2023-11-12T17:20:55.261Z,19.42
2023-11-12T17:23:21.134Z,17.80
2023-11-12T17:25:48.828Z,18.77
2023-11-12T17:28:14.648Z,18.95
2023-11-12T17:30:40.532Z,20.13
2023-11-12T17:33:07.429Z,19.88
2023-11-12T17:35:34.003Z,22.73
2023-11-12T17:37:59.871Z,18.80
2023-11-12T17:40:27.724Z,21.20
2023-11-12T17:42:53.528Z,21.10
2023-11-12T17:45:19.514Z,25.80
2023-11-12T17:47:45.380Z,27.58
2023-11-12T17:50:11.280Z,24.35
2023-11-12T17:52:37.142Z,26.27
2023-11-12T17:55:03.298Z,31.65
2023-11-12T17:57:31.099Z,25.70
2023-11-12T17:59:56.973Z,29.83
2023-11-12T18:02:23.579Z,29.23
2023-11-12T18:04:49.548Z,30.13
2023-11-12T18:07:15.586Z,30.00
2023-11-12T18:09:41.480Z,32.20
2023-11-12T18:12:07.579Z,28.50
2023-11-12T18:14:33.424Z,32.78
2023-11-12T18:16:59.648Z,34.35
2023-11-12T18:21:51.752Z,26.63
2023-11-12T18:24:17.591Z,27.88
2023-11-12T18:26:51.429Z,33.08
2023-11-12T18:29:18.161Z,31.88
2023-11-12T18:31:44.221Z,38.25
2023-11-12T18:34:10.747Z,38.95
2023-11-12T18:36:36.818Z,40.58
2023-11-12T18:39:02.923Z,37.85
2023-11-12T18:41:29.700Z,39.97
2023-11-12T18:43:55.589Z,34.90
2023-11-12T18:46:22.185Z,32.75
2023-11-12T18:48:49.610Z,35.97
2023-11-12T18:51:17.099Z,39.88
2023-11-12T18:53:44.707Z,38.88
2023-11-12T18:56:10.791Z,37.45
2023-11-12T18:58:36.725Z,41.20
2023-11-12T19:01:02.656Z,35.33
2023-11-12T19:03:29.679Z,36.22
2023-11-12T19:05:55.547Z,24.25
2023-11-12T19:08:21.427Z,30.80
2023-11-12T19:10:49.002Z,38.85
2023-11-12T19:13:14.916Z,42.40
2023-11-12T19:15:40.796Z,41.70
2023-11-12T19:18:06.694Z,43.08
2023-11-12T19:20:36.959Z,39.47
2023-11-12T19:23:03.445Z,43.95
2023-11-12T19:25:29.456Z,37.97
2023-11-12T19:27:55.409Z,38.05
2023-11-12T19:30:23.625Z,37.38
2023-11-12T19:32:50.292Z,44.03
2023-11-12T19:35:17.111Z,42.20
2023-11-12T19:37:44.591Z,39.28
2023-11-12T19:40:16.693Z,32.10
2023-11-12T19:42:42.749Z,35.50
2023-11-12T19:45:12.077Z,31.35
2023-11-12T19:47:37.922Z,39.22
2023-11-12T19:50:06.464Z,32.50
2023-11-12T19:52:33.540Z,37.05
2023-11-12T19:54:59.425Z,35.28
2023-11-12T19:57:26.938Z,36.83
2023-11-12T19:59:54.142Z,45.70
2023-11-12T20:02:19.943Z,34.75
2023-11-12T20:04:45.773Z,39.67
2023-11-12T20:07:11.924Z,37.80
2023-11-12T20:09:38.929Z,42.47
2023-11-12T20:12:06.261Z,37.63
2023-11-12T20:14:32.166Z,37.28
2023-11-12T20:17:01.145Z,38.50
2023-11-12T20:19:27.933Z,35.40
2023-11-12T20:21:54.335Z,38.70
2023-11-12T20:24:20.459Z,36.70
2023-11-12T20:26:51.719Z,37.85
2023-11-12T20:29:21.206Z,34.53
2023-11-12T20:31:51.772Z,33.65
2023-11-12T20:34:17.854Z,33.78
2023-11-12T20:36:47.044Z,39.25
2023-11-12T20:41:46.318Z,32.83
2023-11-12T20:44:13.511Z,39.15
2023-11-12T20:46:45.276Z,34.47
2023-11-12T20:49:16.315Z,33.83
2023-11-12T20:51:51.701Z,28.73
2023-11-12T20:54:17.594Z,27.00
2023-11-12T20:56:43.710Z,28.17
2023-11-12T20:59:10.319Z,27.38
2023-11-12T21:01:36.969Z,29.88
2023-11-12T21:04:03.419Z,26.20
2023-11-12T21:06:30.235Z,22.48
2023-11-12T21:08:56.256Z,28.85
2023-11-12T21:11:22.773Z,24.77
2023-11-12T21:13:51.068Z,30.88
2023-11-12T21:16:20.546Z,30.30
2023-11-12T21:18:47.722Z,26.08
2023-11-12T21:21:16.061Z,27.98
2023-11-12T21:23:41.867Z,29.52
2023-11-12T21:26:13.224Z,29.60
2023-11-12T21:28:39.081Z,24.42
2023-11-12T21:31:06.112Z,29.05
2023-11-12T21:33:32.315Z,31.08
2023-11-12T21:35:59.454Z,30.58
2023-11-12T21:38:25.430Z,30.92
2023-11-12T21:40:51.323Z,30.77
2023-11-12T21:43:17.203Z,27.73
2023-11-12T21:45:45.063Z,30.35
2023-11-12T21:48:12.386Z,32.22
2023-11-12T21:50:38.421Z,24.85
2023-11-12T21:53:04.417Z,30.50
2023-11-12T21:55:30.249Z,37.08
2023-11-12T21:57:56.608Z,35.53
2023-11-12T22:00:26.689Z,34.97
2023-11-12T22:02:56.484Z,32.33
2023-11-12T22:05:25.020Z,35.13
2023-11-12T22:07:51.217Z,33.88
2023-11-12T22:10:17.201Z,32.83
2023-11-12T22:12:44.069Z,31.05
2023-11-12T22:15:13.624Z,48.10
2023-11-12T22:17:40.697Z,45.83
2023-11-12T22:20:06.992Z,52.03
2023-11-12T22:22:33.141Z,60.22
2023-11-12T22:25:08.695Z,53.88
2023-11-12T22:27:43.469Z,57.80
2023-11-12T22:30:11.536Z,49.33
2023-11-12T22:32:37.875Z,52.15
2023-11-12T22:35:06.595Z,52.47
2023-11-12T22:37:32.453Z,51.58
2023-11-12T22:39:58.470Z,49.28
2023-11-12T22:42:24.722Z,62.63
2023-11-12T22:44:50.541Z,46.38
2023-11-12T22:47:16.410Z,43.17
2023-11-12T22:49:42.234Z,44.53
2023-11-12T22:52:08.036Z,39.20
2023-11-12T22:54:34.850Z,39.42
2023-11-12T22:57:00.680Z,49.42
2023-11-12T22:59:26.633Z,53.45
2023-11-12T23:01:52.518Z,53.80
2023-11-12T23:04:18.629Z,75.95
2023-11-12T23:06:44.979Z,73.97
2023-11-12T23:09:11.672Z,74.80
2023-11-12T23:11:37.464Z,64.88
2023-11-12T23:14:04.564Z,74.78
2023-11-12T23:16:30.442Z,68.80
2023-11-12T23:18:56.364Z,69.00
2023-11-12T23:21:22.206Z,67.18
2023-11-12T23:23:48.094Z,57.58
2023-11-12T23:26:13.945Z,54.78
2023-11-12T23:28:39.780Z,61.40
2023-11-12T23:31:05.664Z,67.25
2023-11-12T23:33:31.595Z,59.03
2023-11-12T23:35:57.570Z,64.25
2023-11-12T23:38:23.385Z,64.72
2023-11-12T23:40:49.250Z,61.28
2023-11-12T23:43:16.199Z,64.25
2023-11-12T23:45:42.426Z,56.97
2023-11-12T23:48:08.598Z,52.92
2023-11-12T23:50:35.103Z,48.72
2023-11-12T23:53:00.933Z,48.08
2023-11-12T23:55:26.852Z,51.30
2023-11-12T23:57:52.903Z,65.82
